Em Athens — V7US8 — position and weather

sailwx.info

Track history (hours):
 
Tides and Currents Weather Stations Pressure Air Temp Water Temp Dewpoint Dewpoint Depression Visibility Wind Speed Wind Dir Waves Ship Positions

Em Athens

Last reported at 2015-Mar-24 14:05 UTC. Time now 2015-Mar-29 03:07 UTC.
Position N 38°56' E 009°31'.

Length 207 m; draft 11.5 m.

Type: Cargo ship. MMSI: 538004019.

Date/timePositionNaut miles runAvg speedWind from/ knotsBaromVisibWave heightAir tempDewpointWater temp
2015-Mar-24 14:05N 38°56' E 009°31'815.3
2015-Mar-24 13:34N 39°00' E 009°22'1515.0
2015-Mar-24 12:33N 39°09' E 009°07'4 4.0
2015-Mar-24 11:32N 39°13' E 009°04'0 0.0
2015-Mar-24 10:32N 39°13' E 009°04'0 0.0
2015-Mar-24 09:32N 39°13' E 009°04'0 0.0
2015-Mar-24 08:32N 39°13' E 009°04'0 0.0
2015-Mar-24 07:32N 39°13' E 009°04'0 0.0
2015-Mar-24 06:32N 39°13' E 009°04'0 0.0
2015-Mar-24 05:32N 39°13' E 009°04'0 0.0
2015-Mar-24 04:32N 39°13' E 009°04'0 0.0
2015-Mar-24 03:32N 39°13' E 009°04'0 0.0
2015-Mar-24 02:32N 39°13' E 009°04'0 0.0
2015-Mar-24 01:32N 39°13' E 009°04'0 0.0
2015-Mar-24 00:32N 39°13' E 009°04'0 0.0
2015-Mar-23 23:32N 39°13' E 009°04'0 0.0
2015-Mar-23 22:32N 39°13' E 009°04'0 0.0
2015-Mar-23 21:32N 39°13' E 009°04'0 0.0
2015-Mar-23 20:32N 39°13' E 009°04'0 0.0
2015-Mar-23 19:32N 39°13' E 009°04'0 0.0
2015-Mar-23 18:32N 39°13' E 009°04'0 0.0
2015-Mar-23 17:29N 39°13' E 009°04'0 0.0
2015-Mar-23 16:32N 39°13' E 009°04'0 0.0
2015-Mar-23 15:29N 39°13' E 009°04'0 0.0
2015-Mar-23 14:32N 39°13' E 009°04'0 0.0
2015-Mar-23 13:32N 39°13' E 009°04'0 0.0
2015-Mar-23 12:32N 39°13' E 009°04'0 0.0
2015-Mar-23 11:32N 39°13' E 009°04'0 0.0
2015-Mar-23 10:32N 39°13' E 009°04'0 0.4
2015-Mar-23 09:33N 39°13' E 009°04'6 6.3
2015-Mar-23 08:33N 39°07' E 009°07'1211.9
2015-Mar-23 07:33N 39°02' E 009°21'1612.6
2015-Mar-23 06:19N 39°01' E 009°41'19516.0
2015-Mar-22 18:05N 40°16' E 013°36'916.0
2015-Mar-22 17:33N 40°19' E 013°46'1716.2
2015-Mar-22 16:32N 40°25' E 014°06'1616.6
2015-Mar-22 15:33N 40°32' E 014°26'2 0.1
2015-Mar-21 23:33N 40°34' E 014°25'1313.1
2015-Mar-21 22:33N 40°45' E 014°18'5 4.3
2015-Mar-21 21:24N 40°50' E 014°17'0 0.0
2015-Mar-21 20:24N 40°50' E 014°17'0 0.0
2015-Mar-21 19:33N 40°50' E 014°17'0 0.0
2015-Mar-21 18:21N 40°50' E 014°17'0 0.0
2015-Mar-21 17:18N 40°50' E 014°17'0 0.0
2015-Mar-21 16:18N 40°50' E 014°17'0 0.0
2015-Mar-21 15:33N 40°50' E 014°17'0 0.0
2015-Mar-21 14:15N 40°50' E 014°17'0 0.0
2015-Mar-21 13:24N 40°50' E 014°17'0 0.0
2015-Mar-21 12:33N 40°50' E 014°17'0 0.0
2015-Mar-21 11:06N 40°50' E 014°17'0 0.0
2015-Mar-21 10:33N 40°50' E 014°17'0 0.0
2015-Mar-21 09:33N 40°50' E 014°17'0 0.0
2015-Mar-21 08:30N 40°50' E 014°17'0 0.0
2015-Mar-21 07:18N 40°50' E 014°17'0 0.0
2015-Mar-21 06:33N 40°50' E 014°17'4 3.3
2015-Mar-21 05:29N 40°47' E 014°15'1314.1
2015-Mar-21 04:33N 40°39' E 014°02'1615.0
2015-Mar-21 03:29N 40°40' E 013°41'1615.3
2015-Mar-21 02:27N 40°44' E 013°21'12615.2
2015-Mar-20 18:10N 42°00' E 011°07'4115.6
2015-Mar-20 15:31N 42°28' E 010°26'3015.1
2015-Mar-20 13:33N 42°52' E 010°02'1615.6
2015-Mar-20 12:33N 43°07' E 010°04'1615.8
2015-Mar-20 11:33N 43°23' E 010°08'1212.1
2015-Mar-20 10:34N 43°33' E 010°17'2 1.7
2015-Mar-20 09:32N 43°34' E 010°18'0 0.0
2015-Mar-20 08:32N 43°34' E 010°18'0 0.0
2015-Mar-20 07:32N 43°34' E 010°18'0 0.0
2015-Mar-20 06:32N 43°34' E 010°18'0 0.0
2015-Mar-20 05:32N 43°34' E 010°18'0 0.0
2015-Mar-20 04:32N 43°34' E 010°18'0 0.0
2015-Mar-20 03:32N 43°34' E 010°18'0 0.0
2015-Mar-20 02:26N 43°34' E 010°18'0 0.0
2015-Mar-20 01:32N 43°34' E 010°18'0 0.0
2015-Mar-20 00:32N 43°34' E 010°18'0 0.0
2015-Mar-19 23:32N 43°34' E 010°18'0 0.0
2015-Mar-19 22:32N 43°34' E 010°18'0 0.0
2015-Mar-19 21:32N 43°34' E 010°18'0 0.0
2015-Mar-19 20:33N 43°34' E 010°18'6 6.0
2015-Mar-19 19:33N 43°30' E 010°13'1010.4
2015-Mar-19 18:33N 43°33' E 009°59'1313.2
2015-Mar-19 17:33N 43°43' E 009°48'1313.4
2015-Mar-19 16:33N 43°52' E 009°34'1313.4
2015-Mar-19 15:33N 44°00' E 009°20'1110.6
2015-Mar-19 14:33N 44°07' E 009°09'9 9.4
2015-Mar-19 13:33N 44°13' E 008°58'9 9.4
2015-Mar-19 12:33N 44°19' E 008°48'6 5.8
2015-Mar-19 11:33N 44°25' E 008°47'0 0.1
2015-Mar-19 10:32N 44°25' E 008°47'0 0.0
2015-Mar-19 09:29N 44°25' E 008°47'0 0.0
2015-Mar-19 08:32N 44°25' E 008°47'0 0.0
2015-Mar-19 07:29N 44°25' E 008°47'0 0.0
2015-Mar-19 06:32N 44°25' E 008°47'0 0.0
2015-Mar-19 05:32N 44°25' E 008°47'0 0.0
2015-Mar-19 04:32N 44°25' E 008°47'0 0.0
2015-Mar-19 03:29N 44°25' E 008°47'0 0.0
2015-Mar-19 02:32N 44°25' E 008°47'0 0.0
2015-Mar-19 01:32N 44°25' E 008°47'0 0.0
2015-Mar-19 00:32N 44°25' E 008°47'0 0.0
2015-Mar-18 23:29N 44°25' E 008°47'0 0.0
2015-Mar-18 22:32N 44°25' E 008°47'0 0.0
2015-Mar-18 21:26N 44°25' E 008°47'0 0.0
2015-Mar-18 20:32N 44°25' E 008°47'0 0.0
2015-Mar-18 19:23N 44°25' E 008°47'0 0.0
2015-Mar-18 18:32N 44°25' E 008°47'0 0.0
2015-Mar-18 17:29N 44°25' E 008°47'0 0.0
2015-Mar-18 16:32N 44°25' E 008°47'0 0.0
2015-Mar-18 15:32N 44°25' E 008°47'0 0.0
2015-Mar-18 14:29N 44°25' E 008°47'0 0.0
2015-Mar-18 13:26N 44°25' E 008°47'0 0.0
2015-Mar-18 12:32N 44°25' E 008°47'2 1.9
2015-Mar-18 11:33N 44°24' E 008°45'5 4.6
2015-Mar-18 10:33N 44°20' E 008°43'1 0.6
2015-Mar-18 09:33N 44°19' E 008°44'1616.0
2015-Mar-18 08:33N 44°07' E 008°57'29017.8
2015-Mar-17 16:16N 39°19' E 009°48'2612.0
2015-Mar-17 14:08N 38°60' E 009°27'1018.0
2015-Mar-17 13:33N 39°04' E 009°15'1211.5
2015-Mar-17 12:33N 39°13' E 009°04'0 0.0
2015-Mar-17 11:33N 39°13' E 009°04'0 0.0
2015-Mar-17 10:33N 39°13' E 009°04'0 0.0
2015-Mar-17 09:33N 39°13' E 009°04'0 0.0
2015-Mar-17 08:33N 39°13' E 009°04'0 0.0
2015-Mar-17 07:33N 39°13' E 009°04'0 0.0
2015-Mar-17 06:33N 39°13' E 009°04'0 0.0
2015-Mar-17 05:33N 39°13' E 009°04'0 0.0
2015-Mar-17 04:34N 39°13' E 009°04'0 0.0
2015-Mar-17 03:27N 39°13' E 009°04'0 0.0
2015-Mar-17 02:33N 39°13' E 009°04'0 0.0
2015-Mar-17 01:30N 39°13' E 009°04'0 0.0
2015-Mar-17 00:33N 39°13' E 009°04'0 0.0
2015-Mar-16 23:33N 39°13' E 009°04'0 0.0
2015-Mar-16 22:33N 39°13' E 009°04'0 0.0
2015-Mar-16 21:33N 39°13' E 009°04'0 0.0
2015-Mar-16 20:33N 39°13' E 009°04'0 0.0
2015-Mar-16 19:33N 39°13' E 009°04'0 0.0
2015-Mar-16 18:33N 39°13' E 009°04'0 0.0
2015-Mar-16 17:33N 39°13' E 009°04'0 0.0
2015-Mar-16 16:33N 39°13' E 009°04'0 0.0
2015-Mar-16 15:33N 39°13' E 009°04'0 0.0
2015-Mar-16 14:33N 39°13' E 009°04'0 0.0
2015-Mar-16 13:33N 39°13' E 009°04'0 0.0
2015-Mar-16 12:33N 39°13' E 009°04'0 0.3
2015-Mar-16 11:33N 39°13' E 009°04'6 5.7
2015-Mar-16 10:34N 39°08' E 009°07'1212.1
2015-Mar-16 09:33N 39°02' E 009°21'1312.8
2015-Mar-16 08:33N 39°03' E 009°37'19015.9
2015-Mar-15 20:33N 40°25' E 013°21'1616.2
2015-Mar-15 19:33N 40°32' E 013°40'1616.2
2015-Mar-15 18:33N 40°39' E 013°59'1515.1
2015-Mar-15 17:33N 40°46' E 014°17'4 0.7
2015-Mar-15 11:27N 40°50' E 014°17'6 5.1
2015-Mar-15 10:17N 40°44' E 014°17'1013.5
2015-Mar-15 09:34N 40°35' E 014°17'  
Track history (hours):
 
Tides and Currents Weather Stations Pressure Air Temp Water Temp Dewpoint Dewpoint Depression Visibility Wind Speed Wind Dir Waves Ship Positions

Em Athens

Last reported at 2015-Mar-24 14:05 UTC. Time now 2015-Mar-29 03:07 UTC.
Position N 38°56' E 009°31'.

Length 207 m; draft 11.5 m.

Type: Cargo ship. MMSI: 538004019.

Date/timePositionNaut miles runAvg speedWind from/ knotsBaromVisibWave heightAir tempDewpointWater temp
2015-Mar-24 14:05N 38°56' E 009°31'815.3
2015-Mar-24 13:34N 39°00' E 009°22'1515.0
2015-Mar-24 12:33N 39°09' E 009°07'4 4.0
2015-Mar-24 11:32N 39°13' E 009°04'0 0.0
2015-Mar-24 10:32N 39°13' E 009°04'0 0.0
2015-Mar-24 09:32N 39°13' E 009°04'0 0.0
2015-Mar-24 08:32N 39°13' E 009°04'0 0.0
2015-Mar-24 07:32N 39°13' E 009°04'0 0.0
2015-Mar-24 06:32N 39°13' E 009°04'0 0.0
2015-Mar-24 05:32N 39°13' E 009°04'0 0.0
2015-Mar-24 04:32N 39°13' E 009°04'0 0.0
2015-Mar-24 03:32N 39°13' E 009°04'0 0.0
2015-Mar-24 02:32N 39°13' E 009°04'0 0.0
2015-Mar-24 01:32N 39°13' E 009°04'0 0.0
2015-Mar-24 00:32N 39°13' E 009°04'0 0.0
2015-Mar-23 23:32N 39°13' E 009°04'0 0.0
2015-Mar-23 22:32N 39°13' E 009°04'0 0.0
2015-Mar-23 21:32N 39°13' E 009°04'0 0.0
2015-Mar-23 20:32N 39°13' E 009°04'0 0.0
2015-Mar-23 19:32N 39°13' E 009°04'0 0.0
2015-Mar-23 18:32N 39°13' E 009°04'0 0.0
2015-Mar-23 17:29N 39°13' E 009°04'0 0.0
2015-Mar-23 16:32N 39°13' E 009°04'0 0.0
2015-Mar-23 15:29N 39°13' E 009°04'0 0.0
2015-Mar-23 14:32N 39°13' E 009°04'0 0.0
2015-Mar-23 13:32N 39°13' E 009°04'0 0.0
2015-Mar-23 12:32N 39°13' E 009°04'0 0.0
2015-Mar-23 11:32N 39°13' E 009°04'0 0.0
2015-Mar-23 10:32N 39°13' E 009°04'0 0.4
2015-Mar-23 09:33N 39°13' E 009°04'6 6.3
2015-Mar-23 08:33N 39°07' E 009°07'1211.9
2015-Mar-23 07:33N 39°02' E 009°21'1612.6
2015-Mar-23 06:19N 39°01' E 009°41'19516.0
2015-Mar-22 18:05N 40°16' E 013°36'916.0
2015-Mar-22 17:33N 40°19' E 013°46'1716.2
2015-Mar-22 16:32N 40°25' E 014°06'1616.6
2015-Mar-22 15:33N 40°32' E 014°26'2 0.1
2015-Mar-21 23:33N 40°34' E 014°25'1313.1
2015-Mar-21 22:33N 40°45' E 014°18'5 4.3
2015-Mar-21 21:24N 40°50' E 014°17'0 0.0
2015-Mar-21 20:24N 40°50' E 014°17'0 0.0
2015-Mar-21 19:33N 40°50' E 014°17'0 0.0
2015-Mar-21 18:21N 40°50' E 014°17'0 0.0
2015-Mar-21 17:18N 40°50' E 014°17'0 0.0
2015-Mar-21 16:18N 40°50' E 014°17'0 0.0
2015-Mar-21 15:33N 40°50' E 014°17'0 0.0
2015-Mar-21 14:15N 40°50' E 014°17'0 0.0
2015-Mar-21 13:24N 40°50' E 014°17'0 0.0
2015-Mar-21 12:33N 40°50' E 014°17'0 0.0
2015-Mar-21 11:06N 40°50' E 014°17'0 0.0
2015-Mar-21 10:33N 40°50' E 014°17'0 0.0
2015-Mar-21 09:33N 40°50' E 014°17'0 0.0
2015-Mar-21 08:30N 40°50' E 014°17'0 0.0
2015-Mar-21 07:18N 40°50' E 014°17'0 0.0
2015-Mar-21 06:33N 40°50' E 014°17'4 3.3
2015-Mar-21 05:29N 40°47' E 014°15'1314.1
2015-Mar-21 04:33N 40°39' E 014°02'1615.0
2015-Mar-21 03:29N 40°40' E 013°41'1615.3
2015-Mar-21 02:27N 40°44' E 013°21'12615.2
2015-Mar-20 18:10N 42°00' E 011°07'4115.6
2015-Mar-20 15:31N 42°28' E 010°26'3015.1
2015-Mar-20 13:33N 42°52' E 010°02'1615.6
2015-Mar-20 12:33N 43°07' E 010°04'1615.8
2015-Mar-20 11:33N 43°23' E 010°08'1212.1
2015-Mar-20 10:34N 43°33' E 010°17'2 1.7
2015-Mar-20 09:32N 43°34' E 010°18'0 0.0
2015-Mar-20 08:32N 43°34' E 010°18'0 0.0
2015-Mar-20 07:32N 43°34' E 010°18'0 0.0
2015-Mar-20 06:32N 43°34' E 010°18'0 0.0
2015-Mar-20 05:32N 43°34' E 010°18'0 0.0
2015-Mar-20 04:32N 43°34' E 010°18'0 0.0
2015-Mar-20 03:32N 43°34' E 010°18'0 0.0
2015-Mar-20 02:26N 43°34' E 010°18'0 0.0
2015-Mar-20 01:32N 43°34' E 010°18'0 0.0
2015-Mar-20 00:32N 43°34' E 010°18'0 0.0
2015-Mar-19 23:32N 43°34' E 010°18'0 0.0
2015-Mar-19 22:32N 43°34' E 010°18'0 0.0
2015-Mar-19 21:32N 43°34' E 010°18'0 0.0
2015-Mar-19 20:33N 43°34' E 010°18'6 6.0
2015-Mar-19 19:33N 43°30' E 010°13'1010.4
2015-Mar-19 18:33N 43°33' E 009°59'1313.2
2015-Mar-19 17:33N 43°43' E 009°48'1313.4
2015-Mar-19 16:33N 43°52' E 009°34'1313.4
2015-Mar-19 15:33N 44°00' E 009°20'1110.6
2015-Mar-19 14:33N 44°07' E 009°09'9 9.4
2015-Mar-19 13:33N 44°13' E 008°58'9 9.4
2015-Mar-19 12:33N 44°19' E 008°48'6 5.8
2015-Mar-19 11:33N 44°25' E 008°47'0 0.1
2015-Mar-19 10:32N 44°25' E 008°47'0 0.0
2015-Mar-19 09:29N 44°25' E 008°47'0 0.0
2015-Mar-19 08:32N 44°25' E 008°47'0 0.0
2015-Mar-19 07:29N 44°25' E 008°47'0 0.0
2015-Mar-19 06:32N 44°25' E 008°47'0 0.0
2015-Mar-19 05:32N 44°25' E 008°47'0 0.0
2015-Mar-19 04:32N 44°25' E 008°47'0 0.0
2015-Mar-19 03:29N 44°25' E 008°47'0 0.0
2015-Mar-19 02:32N 44°25' E 008°47'0 0.0
2015-Mar-19 01:32N 44°25' E 008°47'0 0.0
2015-Mar-19 00:32N 44°25' E 008°47'0 0.0
2015-Mar-18 23:29N 44°25' E 008°47'0 0.0
2015-Mar-18 22:32N 44°25' E 008°47'0 0.0
2015-Mar-18 21:26N 44°25' E 008°47'0 0.0
2015-Mar-18 20:32N 44°25' E 008°47'0 0.0
2015-Mar-18 19:23N 44°25' E 008°47'0 0.0
2015-Mar-18 18:32N 44°25' E 008°47'0 0.0
2015-Mar-18 17:29N 44°25' E 008°47'0 0.0
2015-Mar-18 16:32N 44°25' E 008°47'0 0.0
2015-Mar-18 15:32N 44°25' E 008°47'0 0.0
2015-Mar-18 14:29N 44°25' E 008°47'0 0.0
2015-Mar-18 13:26N 44°25' E 008°47'0 0.0
2015-Mar-18 12:32N 44°25' E 008°47'2 1.9
2015-Mar-18 11:33N 44°24' E 008°45'5 4.6
2015-Mar-18 10:33N 44°20' E 008°43'1 0.6
2015-Mar-18 09:33N 44°19' E 008°44'1616.0
2015-Mar-18 08:33N 44°07' E 008°57'29017.8
2015-Mar-17 16:16N 39°19' E 009°48'2612.0
2015-Mar-17 14:08N 38°60' E 009°27'1018.0
2015-Mar-17 13:33N 39°04' E 009°15'1211.5
2015-Mar-17 12:33N 39°13' E 009°04'0 0.0
2015-Mar-17 11:33N 39°13' E 009°04'0 0.0
2015-Mar-17 10:33N 39°13' E 009°04'0 0.0
2015-Mar-17 09:33N 39°13' E 009°04'0 0.0
2015-Mar-17 08:33N 39°13' E 009°04'0 0.0
2015-Mar-17 07:33N 39°13' E 009°04'0 0.0
2015-Mar-17 06:33N 39°13' E 009°04'0 0.0
2015-Mar-17 05:33N 39°13' E 009°04'0 0.0
2015-Mar-17 04:34N 39°13' E 009°04'0 0.0
2015-Mar-17 03:27N 39°13' E 009°04'0 0.0
2015-Mar-17 02:33N 39°13' E 009°04'0 0.0
2015-Mar-17 01:30N 39°13' E 009°04'0 0.0
2015-Mar-17 00:33N 39°13' E 009°04'0 0.0
2015-Mar-16 23:33N 39°13' E 009°04'0 0.0
2015-Mar-16 22:33N 39°13' E 009°04'0 0.0
2015-Mar-16 21:33N 39°13' E 009°04'0 0.0
2015-Mar-16 20:33N 39°13' E 009°04'0 0.0
2015-Mar-16 19:33N 39°13' E 009°04'0 0.0
2015-Mar-16 18:33N 39°13' E 009°04'0 0.0
2015-Mar-16 17:33N 39°13' E 009°04'0 0.0
2015-Mar-16 16:33N 39°13' E 009°04'0 0.0
2015-Mar-16 15:33N 39°13' E 009°04'0 0.0
2015-Mar-16 14:33N 39°13' E 009°04'0 0.0
2015-Mar-16 13:33N 39°13' E 009°04'0 0.0
2015-Mar-16 12:33N 39°13' E 009°04'0 0.3
2015-Mar-16 11:33N 39°13' E 009°04'6 5.7
2015-Mar-16 10:34N 39°08' E 009°07'1212.1
2015-Mar-16 09:33N 39°02' E 009°21'1312.8
2015-Mar-16 08:33N 39°03' E 009°37'19015.9
2015-Mar-15 20:33N 40°25' E 013°21'1616.2
2015-Mar-15 19:33N 40°32' E 013°40'1616.2
2015-Mar-15 18:33N 40°39' E 013°59'1515.1
2015-Mar-15 17:33N 40°46' E 014°17'4 0.7
2015-Mar-15 11:27N 40°50' E 014°17'6 5.1
2015-Mar-15 10:17N 40°44' E 014°17'1013.5
2015-Mar-15 09:34N 40°35' E 014°17'  

Dump ship's entire track history